New Mighty — 3FMN — position and weather

sailwx.info

Track history (hours):
 
Tides and Currents Weather Stations Pressure Air Temp Water Temp Dewpoint Dewpoint Depression Visibility Wind Speed Wind Dir Waves Ship Positions

New Mighty

Last reported at 2016-May-31 03:28 UTC. Time now 2016-May-31 12:06 UTC.
Position S 20°38' E 116°43'.

Length 292 m; draft 8.6 m.

Type: Cargo ship. MMSI: 354199000.

Date/timePositionNaut miles runAvg speedWind from/ knotsBaromVisibWave heightAir tempDewpointWater temp
2016-May-31 03:28S 20°38' E 116°43'9 9.9
2016-May-31 02:33S 20°29' E 116°44'7 7.2
2016-May-31 01:33S 20°23' E 116°40'2 2.2
2016-May-31 00:33S 20°21' E 116°38'0 0.0
2016-May-30 23:27S 20°21' E 116°38'0 0.0
2016-May-30 15:27S 20°21' E 116°38'0 0.0
2016-May-30 08:33S 20°21' E 116°38'0 0.0
2016-May-30 06:33S 20°21' E 116°38'1 0.7
2016-May-30 05:33S 20°21' E 116°39'7 6.9
2016-May-30 04:33S 20°16' E 116°43'1411.9
2016-May-30 03:25S 20°04' E 116°51'1314.7
2016-May-30 02:33S 19°54' E 116°59'1414.1
2016-May-30 01:33S 19°42' E 117°07'1313.1
2016-May-30 00:33S 19°31' E 117°14'7913.2
2016-May-29 18:32S 18°22' E 117°57'  
Track history (hours):
 
Tides and Currents Weather Stations Pressure Air Temp Water Temp Dewpoint Dewpoint Depression Visibility Wind Speed Wind Dir Waves Ship Positions

New Mighty

Last reported at 2016-May-31 03:28 UTC. Time now 2016-May-31 12:06 UTC.
Position S 20°38' E 116°43'.

Length 292 m; draft 8.6 m.

Type: Cargo ship. MMSI: 354199000.

Date/timePositionNaut miles runAvg speedWind from/ knotsBaromVisibWave heightAir tempDewpointWater temp
2016-May-31 03:28S 20°38' E 116°43'9 9.9
2016-May-31 02:33S 20°29' E 116°44'7 7.2
2016-May-31 01:33S 20°23' E 116°40'2 2.2
2016-May-31 00:33S 20°21' E 116°38'0 0.0
2016-May-30 23:27S 20°21' E 116°38'0 0.0
2016-May-30 15:27S 20°21' E 116°38'0 0.0
2016-May-30 08:33S 20°21' E 116°38'0 0.0
2016-May-30 06:33S 20°21' E 116°38'1 0.7
2016-May-30 05:33S 20°21' E 116°39'7 6.9
2016-May-30 04:33S 20°16' E 116°43'1411.9
2016-May-30 03:25S 20°04' E 116°51'1314.7
2016-May-30 02:33S 19°54' E 116°59'1414.1
2016-May-30 01:33S 19°42' E 117°07'1313.1
2016-May-30 00:33S 19°31' E 117°14'7913.2
2016-May-29 18:32S 18°22' E 117°57'  

Dump ship's entire track history